sensor_id;sensor_type;location;lat;lon;timestamp;temperature;humidity
21216;DHT22;10765;50.954;5.322;2023-04-24T00:01:05;9.60;90.10
21216;DHT22;10765;50.954;5.322;2023-04-24T00:03:33;9.60;37.50
21216;DHT22;10765;50.954;5.322;2023-04-24T00:06:00;9.60;97.00
21216;DHT22;10765;50.954;5.322;2023-04-24T00:08:27;9.60;99.90
21216;DHT22;10765;50.954;5.322;2023-04-24T00:10:54;9.60;99.90
21216;DHT22;10765;50.954;5.322;2023-04-24T00:13:21;9.60;99.90
21216;DHT22;10765;50.954;5.322;2023-04-24T00:15:50;9.60;99.90
21216;DHT22;10765;50.954;5.322;2023-04-24T00:18:17;9.60;99.90
21216;DHT22;10765;50.954;5.322;2023-04-24T00:20:44;9.60;99.90
21216;DHT22;10765;50.954;5.322;2023-04-24T00:23:12;9.60;99.90
21216;DHT22;10765;50.954;5.322;2023-04-24T00:25:39;9.60;99.90
21216;DHT22;10765;50.954;5.322;2023-04-24T00:28:06;9.60;99.90
21216;DHT22;10765;50.954;5.322;2023-04-24T00:30:33;9.50;99.90
21216;DHT22;10765;50.954;5.322;2023-04-24T00:33:01;9.50;99.90
21216;DHT22;10765;50.954;5.322;2023-04-24T00:35:28;9.50;99.90
21216;DHT22;10765;50.954;5.322;2023-04-24T00:37:55;9.50;99.90
21216;DHT22;10765;50.954;5.322;2023-04-24T00:40:22;9.50;99.90
21216;DHT22;10765;50.954;5.322;2023-04-24T00:42:49;9.50;99.90
21216;DHT22;10765;50.954;5.322;2023-04-24T00:45:16;9.50;99.90
21216;DHT22;10765;50.954;5.322;2023-04-24T00:47:43;9.50;99.90
21216;DHT22;10765;50.954;5.322;2023-04-24T00:50:14;9.50;99.90
21216;DHT22;10765;50.954;5.322;2023-04-24T00:52:41;9.50;99.90
21216;DHT22;10765;50.954;5.322;2023-04-24T00:55:09;9.50;99.90
21216;DHT22;10765;50.954;5.322;2023-04-24T00:57:36;9.50;99.90
21216;DHT22;10765;50.954;5.322;2023-04-24T01:00:04;9.50;99.90
21216;DHT22;10765;50.954;5.322;2023-04-24T01:02:36;9.60;99.90
21216;DHT22;10765;50.954;5.322;2023-04-24T01:05:06;9.50;99.90
21216;DHT22;10765;50.954;5.322;2023-04-24T01:07:35;9.60;99.90
21216;DHT22;10765;50.954;5.322;2023-04-24T01:10:03;9.60;99.90
21216;DHT22;10765;50.954;5.322;2023-04-24T01:12:30;9.50;99.90
21216;DHT22;10765;50.954;5.322;2023-04-24T01:14:57;9.50;99.90
21216;DHT22;10765;50.954;5.322;2023-04-24T01:17:24;9.50;99.90
21216;DHT22;10765;50.954;5.322;2023-04-24T01:19:51;9.60;99.90
21216;DHT22;10765;50.954;5.322;2023-04-24T01:22:21;9.60;99.90
21216;DHT22;10765;50.954;5.322;2023-04-24T01:24:48;9.60;99.90
21216;DHT22;10765;50.954;5.322;2023-04-24T01:27:15;9.60;99.90
21216;DHT22;10765;50.954;5.322;2023-04-24T01:29:42;9.60;99.90
21216;DHT22;10765;50.954;5.322;2023-04-24T01:32:09;9.50;99.90
21216;DHT22;10765;50.954;5.322;2023-04-24T01:34:37;9.50;99.90
21216;DHT22;10765;50.954;5.322;2023-04-24T01:37:04;9.50;99.90
21216;DHT22;10765;50.954;5.322;2023-04-24T01:39:33;9.50;99.90
21216;DHT22;10765;50.954;5.322;2023-04-24T01:42:00;9.50;1.00
21216;DHT22;10765;50.954;5.322;2023-04-24T01:44:28;9.50;1.00
21216;DHT22;10765;50.954;5.322;2023-04-24T01:46:55;9.50;1.00
21216;DHT22;10765;50.954;5.322;2023-04-24T01:49:22;9.40;99.90
21216;DHT22;10765;50.954;5.322;2023-04-24T01:51:49;9.40;1.00
21216;DHT22;10765;50.954;5.322;2023-04-24T01:54:16;9.40;1.00
21216;DHT22;10765;50.954;5.322;2023-04-24T01:56:44;9.40;1.00
21216;DHT22;10765;50.954;5.322;2023-04-24T01:59:12;9.50;99.90
21216;DHT22;10765;50.954;5.322;2023-04-24T02:01:39;9.40;99.90
21216;DHT22;10765;50.954;5.322;2023-04-24T02:04:07;9.40;99.90
21216;DHT22;10765;50.954;5.322;2023-04-24T02:06:34;9.40;1.00
21216;DHT22;10765;50.954;5.322;2023-04-24T02:09:01;9.40;1.00
21216;DHT22;10765;50.954;5.322;2023-04-24T02:11:28;9.30;1.00
21216;DHT22;10765;50.954;5.322;2023-04-24T02:13:57;9.30;1.00
21216;DHT22;10765;50.954;5.322;2023-04-24T02:16:24;9.20;99.90
21216;DHT22;10765;50.954;5.322;2023-04-24T02:18:50;9.10;1.00
21216;DHT22;10765;50.954;5.322;2023-04-24T02:21:17;9.00;99.90
21216;DHT22;10765;50.954;5.322;2023-04-24T02:23:44;9.00;1.00
21216;DHT22;10765;50.954;5.322;2023-04-24T02:26:11;8.90;1.00
21216;DHT22;10765;50.954;5.322;2023-04-24T02:28:38;9.00;1.00
21216;DHT22;10765;50.954;5.322;2023-04-24T02:31:06;9.00;1.00
21216;DHT22;10765;50.954;5.322;2023-04-24T02:33:33;9.10;99.90
21216;DHT22;10765;50.954;5.322;2023-04-24T02:36:01;9.00;1.00
21216;DHT22;10765;50.954;5.322;2023-04-24T02:38:28;9.00;64.90
21216;DHT22;10765;50.954;5.322;2023-04-24T02:40:55;8.90;99.90
21216;DHT22;10765;50.954;5.322;2023-04-24T02:43:22;8.80;1.00
21216;DHT22;10765;50.954;5.322;2023-04-24T02:45:49;8.70;99.90
21216;DHT22;10765;50.954;5.322;2023-04-24T02:48:17;8.50;1.00
21216;DHT22;10765;50.954;5.322;2023-04-24T02:50:46;8.40;99.90
21216;DHT22;10765;50.954;5.322;2023-04-24T02:53:13;8.30;1.00
21216;DHT22;10765;50.954;5.322;2023-04-24T02:55:40;8.20;99.90
21216;DHT22;10765;50.954;5.322;2023-04-24T02:58:07;8.20;99.90
21216;DHT22;10765;50.954;5.322;2023-04-24T03:00:34;8.10;99.90
21216;DHT22;10765;50.954;5.322;2023-04-24T03:03:00;8.10;1.00
21216;DHT22;10765;50.954;5.322;2023-04-24T03:05:29;8.10;1.00
21216;DHT22;10765;50.954;5.322;2023-04-24T03:07:57;8.10;1.00
21216;DHT22;10765;50.954;5.322;2023-04-24T03:10:24;8.10;99.90
21216;DHT22;10765;50.954;5.322;2023-04-24T03:12:51;8.10;1.00
21216;DHT22;10765;50.954;5.322;2023-04-24T03:15:18;8.20;1.00
21216;DHT22;10765;50.954;5.322;2023-04-24T03:17:45;8.20;1.00
21216;DHT22;10765;50.954;5.322;2023-04-24T03:20:12;8.20;1.00
21216;DHT22;10765;50.954;5.322;2023-04-24T03:22:40;8.10;1.00
21216;DHT22;10765;50.954;5.322;2023-04-24T03:25:08;8.10;1.00
21216;DHT22;10765;50.954;5.322;2023-04-24T03:27:35;8.10;23.50
21216;DHT22;10765;50.954;5.322;2023-04-24T03:30:03;8.20;99.90
21216;DHT22;10765;50.954;5.322;2023-04-24T03:32:30;8.10;99.90
21216;DHT22;10765;50.954;5.322;2023-04-24T03:34:57;8.10;99.90
21216;DHT22;10765;50.954;5.322;2023-04-24T03:37:24;8.10;99.90
21216;DHT22;10765;50.954;5.322;2023-04-24T03:39:53;8.10;99.90
21216;DHT22;10765;50.954;5.322;2023-04-24T03:42:20;8.10;99.90
21216;DHT22;10765;50.954;5.322;2023-04-24T03:44:47;8.10;99.90
21216;DHT22;10765;50.954;5.322;2023-04-24T03:47:13;8.00;99.90
21216;DHT22;10765;50.954;5.322;2023-04-24T03:49:40;8.10;99.90
21216;DHT22;10765;50.954;5.322;2023-04-24T03:52:07;8.10;99.90
21216;DHT22;10765;50.954;5.322;2023-04-24T03:54:34;8.10;99.90
21216;DHT22;10765;50.954;5.322;2023-04-24T03:57:02;8.00;99.90
21216;DHT22;10765;50.954;5.322;2023-04-24T03:59:30;8.00;99.90
21216;DHT22;10765;50.954;5.322;2023-04-24T04:01:57;8.00;99.90
21216;DHT22;10765;50.954;5.322;2023-04-24T04:04:24;8.00;99.90
21216;DHT22;10765;50.954;5.322;2023-04-24T04:06:51;8.00;99.90
21216;DHT22;10765;50.954;5.322;2023-04-24T04:09:18;8.00;99.90
21216;DHT22;10765;50.954;5.322;2023-04-24T04:11:45;8.00;99.90
21216;DHT22;10765;50.954;5.322;2023-04-24T04:14:13;8.00;99.90
21216;DHT22;10765;50.954;5.322;2023-04-24T04:16:40;8.00;99.90
21216;DHT22;10765;50.954;5.322;2023-04-24T04:19:07;8.00;99.90
21216;DHT22;10765;50.954;5.322;2023-04-24T04:21:34;7.90;99.90
21216;DHT22;10765;50.954;5.322;2023-04-24T04:24:01;8.00;99.90
21216;DHT22;10765;50.954;5.322;2023-04-24T04:26:28;8.00;99.90
21216;DHT22;10765;50.954;5.322;2023-04-24T04:28:57;7.90;99.90
21216;DHT22;10765;50.954;5.322;2023-04-24T04:31:25;7.90;99.90
21216;DHT22;10765;50.954;5.322;2023-04-24T04:33:52;8.00;99.90
21216;DHT22;10765;50.954;5.322;2023-04-24T04:36:19;7.90;99.90
21216;DHT22;10765;50.954;5.322;2023-04-24T04:38:46;7.90;99.90
21216;DHT22;10765;50.954;5.322;2023-04-24T04:41:14;7.90;99.90
21216;DHT22;10765;50.954;5.322;2023-04-24T04:43:42;8.00;99.90
21216;DHT22;10765;50.954;5.322;2023-04-24T04:46:09;7.90;99.90
21216;DHT22;10765;50.954;5.322;2023-04-24T04:48:38;7.80;99.90
21216;DHT22;10765;50.954;5.322;2023-04-24T04:51:05;7.80;99.90
21216;DHT22;10765;50.954;5.322;2023-04-24T04:53:32;7.90;99.90
21216;DHT22;10765;50.954;5.322;2023-04-24T04:55:59;7.90;99.90
21216;DHT22;10765;50.954;5.322;2023-04-24T04:58:26;7.90;99.90
21216;DHT22;10765;50.954;5.322;2023-04-24T05:00:53;7.90;99.90
21216;DHT22;10765;50.954;5.322;2023-04-24T05:03:20;7.80;99.90
21216;DHT22;10765;50.954;5.322;2023-04-24T05:05:48;7.80;99.90
21216;DHT22;10765;50.954;5.322;2023-04-24T05:08:15;7.90;99.90
21216;DHT22;10765;50.954;5.322;2023-04-24T05:10:41;7.90;99.90
21216;DHT22;10765;50.954;5.322;2023-04-24T05:13:08;8.00;99.90
21216;DHT22;10765;50.954;5.322;2023-04-24T05:15:35;8.00;99.90
21216;DHT22;10765;50.954;5.322;2023-04-24T05:18:02;8.10;99.90
21216;DHT22;10765;50.954;5.322;2023-04-24T05:20:29;8.00;99.90
21216;DHT22;10765;50.954;5.322;2023-04-24T05:22:57;8.10;99.90
21216;DHT22;10765;50.954;5.322;2023-04-24T05:25:24;8.00;99.90
21216;DHT22;10765;50.954;5.322;2023-04-24T05:27:51;8.10;99.90
21216;DHT22;10765;50.954;5.322;2023-04-24T05:30:19;8.00;99.90
21216;DHT22;10765;50.954;5.322;2023-04-24T05:32:46;8.10;99.90
21216;DHT22;10765;50.954;5.322;2023-04-24T05:35:13;8.00;99.90
21216;DHT22;10765;50.954;5.322;2023-04-24T05:37:40;8.00;99.90
21216;DHT22;10765;50.954;5.322;2023-04-24T05:40:09;8.10;99.90
21216;DHT22;10765;50.954;5.322;2023-04-24T05:42:36;8.00;99.90
21216;DHT22;10765;50.954;5.322;2023-04-24T05:45:04;8.00;99.90
21216;DHT22;10765;50.954;5.322;2023-04-24T05:47:31;8.00;99.90
21216;DHT22;10765;50.954;5.322;2023-04-24T05:49:58;8.00;99.90
21216;DHT22;10765;50.954;5.322;2023-04-24T05:52:25;8.00;99.90
21216;DHT22;10765;50.954;5.322;2023-04-24T05:54:52;8.00;99.90
21216;DHT22;10765;50.954;5.322;2023-04-24T05:57:20;7.90;99.90
21216;DHT22;10765;50.954;5.322;2023-04-24T05:59:47;7.90;99.90
21216;DHT22;10765;50.954;5.322;2023-04-24T06:02:14;7.90;99.90
21216;DHT22;10765;50.954;5.322;2023-04-24T06:04:41;7.80;99.90
21216;DHT22;10765;50.954;5.322;2023-04-24T06:07:08;7.90;99.90
21216;DHT22;10765;50.954;5.322;2023-04-24T06:09:34;7.80;99.90
21216;DHT22;10765;50.954;5.322;2023-04-24T06:12:02;7.80;99.90
21216;DHT22;10765;50.954;5.322;2023-04-24T06:14:30;7.80;99.90
21216;DHT22;10765;50.954;5.322;2023-04-24T06:16:57;7.80;99.90
21216;DHT22;10765;50.954;5.322;2023-04-24T06:19:24;7.80;99.90
21216;DHT22;10765;50.954;5.322;2023-04-24T06:21:51;7.80;99.90
21216;DHT22;10765;50.954;5.322;2023-04-24T06:24:18;7.80;99.90
21216;DHT22;10765;50.954;5.322;2023-04-24T06:26:44;7.80;99.90
21216;DHT22;10765;50.954;5.322;2023-04-24T06:29:11;7.80;99.90
21216;DHT22;10765;50.954;5.322;2023-04-24T06:31:40;7.70;99.90
21216;DHT22;10765;50.954;5.322;2023-04-24T06:34:06;7.80;99.90
21216;DHT22;10765;50.954;5.322;2023-04-24T06:36:34;7.70;99.90
21216;DHT22;10765;50.954;5.322;2023-04-24T06:39:01;7.70;99.90
21216;DHT22;10765;50.954;5.322;2023-04-24T06:41:28;7.70;99.90
21216;DHT22;10765;50.954;5.322;2023-04-24T06:43:55;7.70;99.90
21216;DHT22;10765;50.954;5.322;2023-04-24T06:46:22;7.70;99.90
21216;DHT22;10765;50.954;5.322;2023-04-24T06:48:53;7.60;99.90
21216;DHT22;10765;50.954;5.322;2023-04-24T06:51:22;7.70;99.90
21216;DHT22;10765;50.954;5.322;2023-04-24T06:53:49;7.70;99.90
21216;DHT22;10765;50.954;5.322;2023-04-24T06:56:16;7.70;99.90
21216;DHT22;10765;50.954;5.322;2023-04-24T06:58:43;7.60;99.90
21216;DHT22;10765;50.954;5.322;2023-04-24T07:01:11;7.70;99.90
21216;DHT22;10765;50.954;5.322;2023-04-24T07:03:37;7.70;99.90
21216;DHT22;10765;50.954;5.322;2023-04-24T07:06:06;7.80;99.90
21216;DHT22;10765;50.954;5.322;2023-04-24T07:08:33;7.90;99.90
21216;DHT22;10765;50.954;5.322;2023-04-24T07:11:01;7.80;99.90
21216;DHT22;10765;50.954;5.322;2023-04-24T07:13:28;7.80;99.90
21216;DHT22;10765;50.954;5.322;2023-04-24T07:15:55;7.80;99.90
21216;DHT22;10765;50.954;5.322;2023-04-24T07:18:22;7.90;99.90
21216;DHT22;10765;50.954;5.322;2023-04-24T07:20:49;8.00;99.90
21216;DHT22;10765;50.954;5.322;2023-04-24T07:23:17;8.00;99.90
21216;DHT22;10765;50.954;5.322;2023-04-24T07:25:45;8.10;99.90
21216;DHT22;10765;50.954;5.322;2023-04-24T07:28:12;8.00;99.90
21216;DHT22;10765;50.954;5.322;2023-04-24T07:30:39;8.00;99.90
21216;DHT22;10765;50.954;5.322;2023-04-24T07:33:06;8.00;99.90
21216;DHT22;10765;50.954;5.322;2023-04-24T07:35:33;8.10;99.90
21216;DHT22;10765;50.954;5.322;2023-04-24T07:38:00;8.20;99.90
21216;DHT22;10765;50.954;5.322;2023-04-24T07:40:29;8.20;99.90
21216;DHT22;10765;50.954;5.322;2023-04-24T07:42:56;8.30;99.90
21216;DHT22;10765;50.954;5.322;2023-04-24T07:45:23;8.20;99.90
21216;DHT22;10765;50.954;5.322;2023-04-24T07:47:51;8.40;99.90
21216;DHT22;10765;50.954;5.322;2023-04-24T07:50:19;8.40;99.90
21216;DHT22;10765;50.954;5.322;2023-04-24T07:52:45;8.40;99.90
21216;DHT22;10765;50.954;5.322;2023-04-24T07:55:13;8.30;99.90
21216;DHT22;10765;50.954;5.322;2023-04-24T07:57:41;8.30;99.90
21216;DHT22;10765;50.954;5.322;2023-04-24T08:00:09;8.30;99.90
21216;DHT22;10765;50.954;5.322;2023-04-24T08:02:36;8.20;99.90
21216;DHT22;10765;50.954;5.322;2023-04-24T08:05:03;8.30;99.90
21216;DHT22;10765;50.954;5.322;2023-04-24T08:07:30;8.30;99.90
21216;DHT22;10765;50.954;5.322;2023-04-24T08:09:57;8.40;99.90
21216;DHT22;10765;50.954;5.322;2023-04-24T08:12:24;8.30;99.90
21216;DHT22;10765;50.954;5.322;2023-04-24T08:14:53;8.30;99.90
21216;DHT22;10765;50.954;5.322;2023-04-24T08:17:20;8.40;99.90
21216;DHT22;10765;50.954;5.322;2023-04-24T08:19:47;8.30;99.90
21216;DHT22;10765;50.954;5.322;2023-04-24T08:22:14;8.30;99.90
21216;DHT22;10765;50.954;5.322;2023-04-24T08:24:41;8.30;99.90
21216;DHT22;10765;50.954;5.322;2023-04-24T08:27:09;8.30;99.90
21216;DHT22;10765;50.954;5.322;2023-04-24T08:29:36;8.40;99.90
21216;DHT22;10765;50.954;5.322;2023-04-24T08:32:04;8.70;99.90
21216;DHT22;10765;50.954;5.322;2023-04-24T08:34:32;8.90;99.90
21216;DHT22;10765;50.954;5.322;2023-04-24T08:36:58;8.90;99.90
21216;DHT22;10765;50.954;5.322;2023-04-24T08:39:25;9.20;99.90
21216;DHT22;10765;50.954;5.322;2023-04-24T08:41:52;9.10;99.90
21216;DHT22;10765;50.954;5.322;2023-04-24T08:44:19;9.00;99.90
21216;DHT22;10765;50.954;5.322;2023-04-24T08:46:48;9.10;99.90
21216;DHT22;10765;50.954;5.322;2023-04-24T08:49:18;9.20;99.90
21216;DHT22;10765;50.954;5.322;2023-04-24T08:51:45;9.20;99.90
21216;DHT22;10765;50.954;5.322;2023-04-24T08:54:13;9.70;99.90
21216;DHT22;10765;50.954;5.322;2023-04-24T08:56:44;9.90;99.90
21216;DHT22;10765;50.954;5.322;2023-04-24T08:59:11;9.60;99.90
21216;DHT22;10765;50.954;5.322;2023-04-24T09:01:39;9.70;99.90
21216;DHT22;10765;50.954;5.322;2023-04-24T09:04:07;9.50;99.90
21216;DHT22;10765;50.954;5.322;2023-04-24T09:06:37;9.30;99.90
21216;DHT22;10765;50.954;5.322;2023-04-24T09:09:04;9.30;99.90
21216;DHT22;10765;50.954;5.322;2023-04-24T09:11:32;9.20;99.90
21216;DHT22;10765;50.954;5.322;2023-04-24T09:13:59;9.10;99.90
21216;DHT22;10765;50.954;5.322;2023-04-24T09:16:27;8.90;99.90
21216;DHT22;10765;50.954;5.322;2023-04-24T09:18:55;8.80;99.90
21216;DHT22;10765;50.954;5.322;2023-04-24T09:21:22;8.80;99.90
21216;DHT22;10765;50.954;5.322;2023-04-24T09:23:59;8.80;99.90
21216;DHT22;10765;50.954;5.322;2023-04-24T09:26:29;9.00;99.90
21216;DHT22;10765;50.954;5.322;2023-04-24T09:28:58;9.30;99.90
21216;DHT22;10765;50.954;5.322;2023-04-24T09:31:27;9.30;99.90
21216;DHT22;10765;50.954;5.322;2023-04-24T09:33:56;9.30;99.90
21216;DHT22;10765;50.954;5.322;2023-04-24T09:36:27;9.70;99.90
21216;DHT22;10765;50.954;5.322;2023-04-24T09:38:59;10.30;99.90
21216;DHT22;10765;50.954;5.322;2023-04-24T09:41:27;12.90;1.00
21216;DHT22;10765;50.954;5.322;2023-04-24T09:43:54;14.30;1.00
21216;DHT22;10765;50.954;5.322;2023-04-24T09:46:29;13.90;99.90
21216;DHT22;10765;50.954;5.322;2023-04-24T09:48:56;15.10;99.90
21216;DHT22;10765;50.954;5.322;2023-04-24T09:51:34;14.40;91.00
21216;DHT22;10765;50.954;5.322;2023-04-24T09:54:04;14.10;99.90
21216;DHT22;10765;50.954;5.322;2023-04-24T09:56:33;13.10;99.90
21216;DHT22;10765;50.954;5.322;2023-04-24T09:59:06;13.00;99.90
21216;DHT22;10765;50.954;5.322;2023-04-24T10:01:34;13.30;99.90
21216;DHT22;10765;50.954;5.322;2023-04-24T10:04:02;14.10;99.90
21216;DHT22;10765;50.954;5.322;2023-04-24T10:06:33;14.10;99.90
21216;DHT22;10765;50.954;5.322;2023-04-24T10:09:01;14.00;40.80
21216;DHT22;10765;50.954;5.322;2023-04-24T10:11:30;14.30;99.90
21216;DHT22;10765;50.954;5.322;2023-04-24T10:13:57;14.50;99.90
21216;DHT22;10765;50.954;5.322;2023-04-24T10:16:25;13.60;1.00
21216;DHT22;10765;50.954;5.322;2023-04-24T10:18:54;12.80;21.80
21216;DHT22;10765;50.954;5.322;2023-04-24T10:21:21;12.50;55.10
21216;DHT22;10765;50.954;5.322;2023-04-24T10:23:49;11.60;99.90
21216;DHT22;10765;50.954;5.322;2023-04-24T10:26:17;11.40;99.90
21216;DHT22;10765;50.954;5.322;2023-04-24T10:28:47;11.30;99.90
21216;DHT22;10765;50.954;5.322;2023-04-24T10:31:14;11.50;99.90
21216;DHT22;10765;50.954;5.322;2023-04-24T10:33:42;12.10;99.90
21216;DHT22;10765;50.954;5.322;2023-04-24T10:36:10;13.40;79.60
21216;DHT22;10765;50.954;5.322;2023-04-24T10:38:39;14.40;1.00
21216;DHT22;10765;50.954;5.322;2023-04-24T10:41:08;14.00;1.00
21216;DHT22;10765;50.954;5.322;2023-04-24T10:43:39;14.20;1.00
21216;DHT22;10765;50.954;5.322;2023-04-24T10:46:08;13.70;1.00
21216;DHT22;10765;50.954;5.322;2023-04-24T10:48:42;13.00;1.00
21216;DHT22;10765;50.954;5.322;2023-04-24T10:51:11;13.10;1.00
21216;DHT22;10765;50.954;5.322;2023-04-24T10:53:39;12.80;1.00
21216;DHT22;10765;50.954;5.322;2023-04-24T10:56:07;12.80;45.80
21216;DHT22;10765;50.954;5.322;2023-04-24T10:58:37;12.30;49.80
21216;DHT22;10765;50.954;5.322;2023-04-24T11:01:06;12.10;99.90
21216;DHT22;10765;50.954;5.322;2023-04-24T11:03:35;11.60;99.90
21216;DHT22;10765;50.954;5.322;2023-04-24T11:06:04;11.30;99.90
21216;DHT22;10765;50.954;5.322;2023-04-24T11:08:36;11.40;99.90
21216;DHT22;10765;50.954;5.322;2023-04-24T11:11:08;11.60;99.90
21216;DHT22;10765;50.954;5.322;2023-04-24T11:14:06;11.60;99.90
21216;DHT22;10765;50.954;5.322;2023-04-24T11:16:37;11.70;99.90
21216;DHT22;10765;50.954;5.322;2023-04-24T11:19:08;11.40;99.90
21216;DHT22;10765;50.954;5.322;2023-04-24T11:21:41;11.20;99.90
21216;DHT22;10765;50.954;5.322;2023-04-24T11:24:25;11.10;99.90
21216;DHT22;10765;50.954;5.322;2023-04-24T11:26:54;11.00;1.00
21216;DHT22;10765;50.954;5.322;2023-04-24T11:29:22;11.20;1.00
21216;DHT22;10765;50.954;5.322;2023-04-24T11:31:49;11.80;99.90
21216;DHT22;10765;50.954;5.322;2023-04-24T11:34:18;12.70;99.90
21216;DHT22;10765;50.954;5.322;2023-04-24T11:36:45;13.00;99.90
21216;DHT22;10765;50.954;5.322;2023-04-24T11:39:12;12.70;62.20
21216;DHT22;10765;50.954;5.322;2023-04-24T11:41:39;12.20;73.30
21216;DHT22;10765;50.954;5.322;2023-04-24T11:44:07;12.00;20.30
21216;DHT22;10765;50.954;5.322;2023-04-24T11:46:34;12.30;1.00
21216;DHT22;10765;50.954;5.322;2023-04-24T11:49:03;12.10;1.00
21216;DHT22;10765;50.954;5.322;2023-04-24T11:51:32;12.40;1.00
21216;DHT22;10765;50.954;5.322;2023-04-24T11:53:59;12.70;1.00
21216;DHT22;10765;50.954;5.322;2023-04-24T11:56:26;12.80;1.00
21216;DHT22;10765;50.954;5.322;2023-04-24T11:58:53;12.80;1.00
21216;DHT22;10765;50.954;5.322;2023-04-24T12:01:20;13.50;1.00
21216;DHT22;10765;50.954;5.322;2023-04-24T12:03:48;13.50;1.00
21216;DHT22;10765;50.954;5.322;2023-04-24T12:06:17;13.90;1.00
21216;DHT22;10765;50.954;5.322;2023-04-24T12:08:47;13.60;1.00
21216;DHT22;10765;50.954;5.322;2023-04-24T12:11:16;14.80;1.00
21216;DHT22;10765;50.954;5.322;2023-04-24T12:13:44;17.70;1.00
21216;DHT22;10765;50.954;5.322;2023-04-24T12:16:11;16.70;1.00
21216;DHT22;10765;50.954;5.322;2023-04-24T12:18:42;15.00;1.00
21216;DHT22;10765;50.954;5.322;2023-04-24T12:21:18;13.60;1.00
21216;DHT22;10765;50.954;5.322;2023-04-24T12:23:46;13.00;1.00
21216;DHT22;10765;50.954;5.322;2023-04-24T12:26:17;12.90;1.00
21216;DHT22;10765;50.954;5.322;2023-04-24T12:28:46;13.60;1.00
21216;DHT22;10765;50.954;5.322;2023-04-24T12:31:13;14.10;1.00
21216;DHT22;10765;50.954;5.322;2023-04-24T12:33:41;13.70;1.00
21216;DHT22;10765;50.954;5.322;2023-04-24T12:36:10;13.10;1.00
21216;DHT22;10765;50.954;5.322;2023-04-24T12:38:38;13.10;1.00
21216;DHT22;10765;50.954;5.322;2023-04-24T12:41:09;13.20;1.00
21216;DHT22;10765;50.954;5.322;2023-04-24T12:43:36;13.30;1.00
21216;DHT22;10765;50.954;5.322;2023-04-24T12:46:03;13.80;1.00
21216;DHT22;10765;50.954;5.322;2023-04-24T12:48:31;15.50;1.00
21216;DHT22;10765;50.954;5.322;2023-04-24T12:50:58;15.70;1.00
21216;DHT22;10765;50.954;5.322;2023-04-24T12:53:27;15.10;1.00
21216;DHT22;10765;50.954;5.322;2023-04-24T12:55:56;13.90;1.00
21216;DHT22;10765;50.954;5.322;2023-04-24T12:58:24;13.40;1.00
21216;DHT22;10765;50.954;5.322;2023-04-24T13:00:51;13.20;1.00
21216;DHT22;10765;50.954;5.322;2023-04-24T13:03:19;13.10;1.00
21216;DHT22;10765;50.954;5.322;2023-04-24T13:05:48;13.20;1.00
21216;DHT22;10765;50.954;5.322;2023-04-24T13:08:14;14.30;1.00
21216;DHT22;10765;50.954;5.322;2023-04-24T13:10:41;15.20;1.00
21216;DHT22;10765;50.954;5.322;2023-04-24T13:13:08;15.00;1.00
21216;DHT22;10765;50.954;5.322;2023-04-24T13:15:37;16.70;1.00
21216;DHT22;10765;50.954;5.322;2023-04-24T13:18:04;17.70;1.00
21216;DHT22;10765;50.954;5.322;2023-04-24T13:20:31;16.30;1.00
21216;DHT22;10765;50.954;5.322;2023-04-24T13:22:57;15.30;1.00
21216;DHT22;10765;50.954;5.322;2023-04-24T13:25:25;15.10;1.00
21216;DHT22;10765;50.954;5.322;2023-04-24T13:27:52;15.20;1.00
21216;DHT22;10765;50.954;5.322;2023-04-24T13:30:19;15.40;1.00
21216;DHT22;10765;50.954;5.322;2023-04-24T13:32:47;14.30;1.00
21216;DHT22;10765;50.954;5.322;2023-04-24T13:35:14;16.40;1.00
21216;DHT22;10765;50.954;5.322;2023-04-24T13:37:41;19.70;1.00
21216;DHT22;10765;50.954;5.322;2023-04-24T13:40:09;20.80;1.00
21216;DHT22;10765;50.954;5.322;2023-04-24T13:42:36;19.60;1.00
21216;DHT22;10765;50.954;5.322;2023-04-24T13:45:04;17.80;1.00
21216;DHT22;10765;50.954;5.322;2023-04-24T13:47:31;15.40;1.00
21216;DHT22;10765;50.954;5.322;2023-04-24T13:49:59;15.60;1.00
21216;DHT22;10765;50.954;5.322;2023-04-24T13:52:26;15.20;1.00
21216;DHT22;10765;50.954;5.322;2023-04-24T13:54:53;14.10;1.00
21216;DHT22;10765;50.954;5.322;2023-04-24T13:57:21;14.00;1.00
21216;DHT22;10765;50.954;5.322;2023-04-24T13:59:47;14.60;1.00
21216;DHT22;10765;50.954;5.322;2023-04-24T14:02:14;14.70;1.00
21216;DHT22;10765;50.954;5.322;2023-04-24T14:04:41;14.60;1.00
21216;DHT22;10765;50.954;5.322;2023-04-24T14:07:09;14.30;1.00
21216;DHT22;10765;50.954;5.322;2023-04-24T14:09:36;15.00;1.00
21216;DHT22;10765;50.954;5.322;2023-04-24T14:12:03;15.30;1.00
21216;DHT22;10765;50.954;5.322;2023-04-24T14:14:31;15.80;1.00
21216;DHT22;10765;50.954;5.322;2023-04-24T14:16:58;15.80;1.00
21216;DHT22;10765;50.954;5.322;2023-04-24T14:19:25;15.10;1.00
21216;DHT22;10765;50.954;5.322;2023-04-24T14:21:52;14.80;1.00
21216;DHT22;10765;50.954;5.322;2023-04-24T14:24:20;14.70;1.00
21216;DHT22;10765;50.954;5.322;2023-04-24T14:26:47;14.60;1.00
21216;DHT22;10765;50.954;5.322;2023-04-24T14:29:14;14.50;1.00
21216;DHT22;10765;50.954;5.322;2023-04-24T14:31:42;14.60;1.00
21216;DHT22;10765;50.954;5.322;2023-04-24T14:34:09;14.70;1.00
21216;DHT22;10765;50.954;5.322;2023-04-24T14:36:36;14.50;1.00
21216;DHT22;10765;50.954;5.322;2023-04-24T14:39:03;14.30;1.00
21216;DHT22;10765;50.954;5.322;2023-04-24T14:41:33;13.80;1.00
21216;DHT22;10765;50.954;5.322;2023-04-24T14:44:01;14.20;1.00
21216;DHT22;10765;50.954;5.322;2023-04-24T14:46:29;14.80;1.00
21216;DHT22;10765;50.954;5.322;2023-04-24T14:48:56;15.30;1.00
21216;DHT22;10765;50.954;5.322;2023-04-24T14:51:23;15.60;1.00
21216;DHT22;10765;50.954;5.322;2023-04-24T14:53:50;15.70;1.00
21216;DHT22;10765;50.954;5.322;2023-04-24T14:56:17;15.70;1.00
21216;DHT22;10765;50.954;5.322;2023-04-24T14:58:46;15.90;1.00
21216;DHT22;10765;50.954;5.322;2023-04-24T15:01:13;15.70;1.00
21216;DHT22;10765;50.954;5.322;2023-04-24T15:03:39;15.90;1.00
21216;DHT22;10765;50.954;5.322;2023-04-24T15:06:06;15.40;1.00
21216;DHT22;10765;50.954;5.322;2023-04-24T15:08:33;15.70;1.00
21216;DHT22;10765;50.954;5.322;2023-04-24T15:11:00;15.60;1.00
21216;DHT22;10765;50.954;5.322;2023-04-24T15:13:27;15.10;1.00
21216;DHT22;10765;50.954;5.322;2023-04-24T15:15:56;15.00;1.00
21216;DHT22;10765;50.954;5.322;2023-04-24T15:18:23;15.10;1.00
21216;DHT22;10765;50.954;5.322;2023-04-24T15:20:49;15.20;1.00
21216;DHT22;10765;50.954;5.322;2023-04-24T15:23:16;15.10;1.00
21216;DHT22;10765;50.954;5.322;2023-04-24T15:25:43;14.90;1.00
21216;DHT22;10765;50.954;5.322;2023-04-24T15:28:10;14.50;1.00
21216;DHT22;10765;50.954;5.322;2023-04-24T15:30:37;14.60;1.00
21216;DHT22;10765;50.954;5.322;2023-04-24T15:33:05;14.60;1.00
21216;DHT22;10765;50.954;5.322;2023-04-24T15:35:33;14.00;1.00
21216;DHT22;10765;50.954;5.322;2023-04-24T15:38:00;13.80;1.00
21216;DHT22;10765;50.954;5.322;2023-04-24T15:40:27;13.70;1.00
21216;DHT22;10765;50.954;5.322;2023-04-24T15:42:54;13.70;1.00
21216;DHT22;10765;50.954;5.322;2023-04-24T15:45:22;13.60;1.00
21216;DHT22;10765;50.954;5.322;2023-04-24T15:47:50;13.50;1.00